Air Resources Laboratory banner image
Air Resources Laboratory web site National Oceanic and Atmospheric Administration (NOAA)

ri metar


KBID 171256Z AUTO 21015G18KT 9SM OVC004 24/22 A2991 RMK AO2 SLP130 T02390222=
KOQU 171250Z 24012KT 5SM BR OVC008 25/22 A2989=
KPVD 171251Z 19010KT 10SM BKN012 BKN300 26/22 A2988 RMK AO2 SLP118 T02610222=
KSFZ 171256Z AUTO VRB05KT 10SM FEW012 26/23 A2989 RMK AO2 SLP065 T02560228=
KUUU 171253Z AUTO 20009G17KT 4SM BR OVC003 23/22 A2990 RMK AO2 SLP121 T02330222=
KWST 171253Z AUTO 21007KT 6SM BR OVC005 24/23 A2991 RMK AO2 SLP126 T02440228=